sensor_id;sensor_type;location;lat;lon;timestamp;temperature;humidity
40932;DHT22;36257;46.052;12.540;2023-03-25T00:00:58;13.10;99.50
40932;DHT22;36257;46.052;12.540;2023-03-25T00:03:25;13.10;99.10
40932;DHT22;36257;46.052;12.540;2023-03-25T00:05:52;13.00;99.00
40932;DHT22;36257;46.052;12.540;2023-03-25T00:08:19;13.00;98.80
40932;DHT22;36257;46.052;12.540;2023-03-25T00:10:44;13.00;98.60
40932;DHT22;36257;46.052;12.540;2023-03-25T00:13:10;13.00;98.10
40932;DHT22;36257;46.052;12.540;2023-03-25T00:15:41;13.00;98.00
40932;DHT22;36257;46.052;12.540;2023-03-25T00:18:11;13.00;98.00
40932;DHT22;36257;46.052;12.540;2023-03-25T00:20:36;13.00;97.80
40932;DHT22;36257;46.052;12.540;2023-03-25T00:23:05;13.00;97.80
40932;DHT22;36257;46.052;12.540;2023-03-25T00:25:31;13.00;97.30
40932;DHT22;36257;46.052;12.540;2023-03-25T00:27:58;13.00;97.00
40932;DHT22;36257;46.052;12.540;2023-03-25T00:30:24;13.00;97.00
40932;DHT22;36257;46.052;12.540;2023-03-25T00:32:50;13.00;96.70
40932;DHT22;36257;46.052;12.540;2023-03-25T00:35:20;13.00;96.70
40932;DHT22;36257;46.052;12.540;2023-03-25T00:37:50;13.00;96.50
40932;DHT22;36257;46.052;12.540;2023-03-25T00:40:30;13.10;96.30
40932;DHT22;36257;46.052;12.540;2023-03-25T00:43:00;13.10;95.90
40932;DHT22;36257;46.052;12.540;2023-03-25T00:45:26;13.10;95.50
40932;DHT22;36257;46.052;12.540;2023-03-25T00:47:51;13.10;95.70
40932;DHT22;36257;46.052;12.540;2023-03-25T00:50:17;13.10;95.20
40932;DHT22;36257;46.052;12.540;2023-03-25T00:52:43;13.10;95.40
40932;DHT22;36257;46.052;12.540;2023-03-25T00:55:09;13.00;95.60
40932;DHT22;36257;46.052;12.540;2023-03-25T00:57:35;13.10;95.40
40932;DHT22;36257;46.052;12.540;2023-03-25T01:00:02;13.10;95.10
40932;DHT22;36257;46.052;12.540;2023-03-25T01:02:30;13.10;95.30
40932;DHT22;36257;46.052;12.540;2023-03-25T01:04:58;13.10;95.40
40932;DHT22;36257;46.052;12.540;2023-03-25T01:07:24;13.10;95.10
40932;DHT22;36257;46.052;12.540;2023-03-25T01:09:50;13.10;95.10
40932;DHT22;36257;46.052;12.540;2023-03-25T01:12:16;13.10;95.40
40932;DHT22;36257;46.052;12.540;2023-03-25T01:14:43;13.10;95.10
40932;DHT22;36257;46.052;12.540;2023-03-25T01:17:09;13.10;95.20
40932;DHT22;36257;46.052;12.540;2023-03-25T01:19:35;13.10;95.10
40932;DHT22;36257;46.052;12.540;2023-03-25T01:22:01;13.10;95.20
40932;DHT22;36257;46.052;12.540;2023-03-25T01:24:26;13.10;95.10
40932;DHT22;36257;46.052;12.540;2023-03-25T01:26:52;13.10;95.00
40932;DHT22;36257;46.052;12.540;2023-03-25T01:29:20;13.10;95.40
40932;DHT22;36257;46.052;12.540;2023-03-25T01:31:46;13.00;95.40
40932;DHT22;36257;46.052;12.540;2023-03-25T01:34:13;13.00;95.30
40932;DHT22;36257;46.052;12.540;2023-03-25T01:36:38;13.00;95.50
40932;DHT22;36257;46.052;12.540;2023-03-25T01:39:07;13.00;95.50
40932;DHT22;36257;46.052;12.540;2023-03-25T01:41:34;13.00;95.70
40932;DHT22;36257;46.052;12.540;2023-03-25T01:44:07;13.00;95.30
40932;DHT22;36257;46.052;12.540;2023-03-25T01:46:34;13.00;95.40
40932;DHT22;36257;46.052;12.540;2023-03-25T01:49:04;13.00;95.40
40932;DHT22;36257;46.052;12.540;2023-03-25T01:51:35;13.00;95.40
40932;DHT22;36257;46.052;12.540;2023-03-25T01:54:03;12.90;95.50
40932;DHT22;36257;46.052;12.540;2023-03-25T01:56:32;13.00;95.60
40932;DHT22;36257;46.052;12.540;2023-03-25T01:59:02;13.00;95.50
40932;DHT22;36257;46.052;12.540;2023-03-25T02:01:30;13.00;95.30
40932;DHT22;36257;46.052;12.540;2023-03-25T02:03:57;13.10;94.90
40932;DHT22;36257;46.052;12.540;2023-03-25T02:06:48;13.00;94.80
40932;DHT22;36257;46.052;12.540;2023-03-25T02:09:20;13.00;95.10
40932;DHT22;36257;46.052;12.540;2023-03-25T02:11:47;13.10;94.90
40932;DHT22;36257;46.052;12.540;2023-03-25T02:14:19;13.10;95.10
40932;DHT22;36257;46.052;12.540;2023-03-25T02:17:11;13.00;95.40
40932;DHT22;36257;46.052;12.540;2023-03-25T02:22:55;13.00;95.90
40932;DHT22;36257;46.052;12.540;2023-03-25T02:33:55;13.00;96.20
40932;DHT22;36257;46.052;12.540;2023-03-25T02:44:18;12.80;97.10
40932;DHT22;36257;46.052;12.540;2023-03-25T02:46:52;12.80;97.20
40932;DHT22;36257;46.052;12.540;2023-03-25T02:49:35;12.80;97.20
40932;DHT22;36257;46.052;12.540;2023-03-25T02:52:07;12.80;97.30
40932;DHT22;36257;46.052;12.540;2023-03-25T02:54:36;12.70;97.60
40932;DHT22;36257;46.052;12.540;2023-03-25T02:57:04;12.70;97.90
40932;DHT22;36257;46.052;12.540;2023-03-25T02:59:32;12.70;98.10
40932;DHT22;36257;46.052;12.540;2023-03-25T03:02:07;12.60;98.20
40932;DHT22;36257;46.052;12.540;2023-03-25T03:04:54;12.50;98.50
40932;DHT22;36257;46.052;12.540;2023-03-25T03:07:27;12.40;98.90
40932;DHT22;36257;46.052;12.540;2023-03-25T03:10:15;12.40;98.80
40932;DHT22;36257;46.052;12.540;2023-03-25T03:23:52;12.40;98.60
40932;DHT22;36257;46.052;12.540;2023-03-25T03:29:17;12.40;98.00
40932;DHT22;36257;46.052;12.540;2023-03-25T03:35:00;12.50;98.00
40932;DHT22;36257;46.052;12.540;2023-03-25T03:37:32;12.60;98.00
40932;DHT22;36257;46.052;12.540;2023-03-25T03:40:02;12.60;98.10
40932;DHT22;36257;46.052;12.540;2023-03-25T03:42:41;12.60;98.20
40932;DHT22;36257;46.052;12.540;2023-03-25T03:45:30;12.60;98.30
40932;DHT22;36257;46.052;12.540;2023-03-25T03:47:59;12.60;98.50
40932;DHT22;36257;46.052;12.540;2023-03-25T03:50:34;12.60;98.70
40932;DHT22;36257;46.052;12.540;2023-03-25T03:53:04;12.60;98.80
40932;DHT22;36257;46.052;12.540;2023-03-25T03:55:35;12.50;99.40
40932;DHT22;36257;46.052;12.540;2023-03-25T03:58:25;12.50;99.60
40932;DHT22;36257;46.052;12.540;2023-03-25T04:01:10;12.60;98.90
40932;DHT22;36257;46.052;12.540;2023-03-25T04:03:54;12.70;98.60
40932;DHT22;36257;46.052;12.540;2023-03-25T04:06:32;12.80;98.40
40932;DHT22;36257;46.052;12.540;2023-03-25T04:09:20;12.80;98.70
40932;DHT22;36257;46.052;12.540;2023-03-25T04:11:59;12.70;98.90
40932;DHT22;36257;46.052;12.540;2023-03-25T04:14:26;12.70;98.90
40932;DHT22;36257;46.052;12.540;2023-03-25T04:16:54;12.80;98.80
40932;DHT22;36257;46.052;12.540;2023-03-25T04:19:20;12.70;98.80
40932;DHT22;36257;46.052;12.540;2023-03-25T04:21:46;12.70;99.00
40932;DHT22;36257;46.052;12.540;2023-03-25T04:24:12;12.80;98.80
40932;DHT22;36257;46.052;12.540;2023-03-25T04:26:41;12.70;99.20
40932;DHT22;36257;46.052;12.540;2023-03-25T04:29:08;12.80;99.20
40932;DHT22;36257;46.052;12.540;2023-03-25T04:31:34;12.80;99.00
40932;DHT22;36257;46.052;12.540;2023-03-25T04:34:00;12.80;99.10
40932;DHT22;36257;46.052;12.540;2023-03-25T04:36:27;12.90;98.40
40932;DHT22;36257;46.052;12.540;2023-03-25T04:39:02;12.90;98.40
40932;DHT22;36257;46.052;12.540;2023-03-25T04:41:28;12.90;98.10
40932;DHT22;36257;46.052;12.540;2023-03-25T04:43:53;13.00;97.40
40932;DHT22;36257;46.052;12.540;2023-03-25T04:46:19;13.00;97.70
40932;DHT22;36257;46.052;12.540;2023-03-25T04:48:45;13.00;97.30
40932;DHT22;36257;46.052;12.540;2023-03-25T04:51:12;13.00;97.30
40932;DHT22;36257;46.052;12.540;2023-03-25T04:53:39;13.00;97.60
40932;DHT22;36257;46.052;12.540;2023-03-25T04:56:06;13.00;97.50
40932;DHT22;36257;46.052;12.540;2023-03-25T04:58:37;13.00;97.50
40932;DHT22;36257;46.052;12.540;2023-03-25T05:01:03;12.90;97.70
40932;DHT22;36257;46.052;12.540;2023-03-25T05:03:36;12.90;98.00
40932;DHT22;36257;46.052;12.540;2023-03-25T05:06:05;12.90;97.60
40932;DHT22;36257;46.052;12.540;2023-03-25T05:08:30;12.90;97.60
40932;DHT22;36257;46.052;12.540;2023-03-25T05:10:56;13.00;97.60
40932;DHT22;36257;46.052;12.540;2023-03-25T05:13:22;13.00;97.80
40932;DHT22;36257;46.052;12.540;2023-03-25T05:15:48;13.00;97.80
40932;DHT22;36257;46.052;12.540;2023-03-25T05:18:15;13.00;97.90
40932;DHT22;36257;46.052;12.540;2023-03-25T05:20:43;13.00;97.90
40932;DHT22;36257;46.052;12.540;2023-03-25T05:23:11;13.00;98.10
40932;DHT22;36257;46.052;12.540;2023-03-25T05:25:48;13.00;98.10
40932;DHT22;36257;46.052;12.540;2023-03-25T05:28:15;13.00;98.30
40932;DHT22;36257;46.052;12.540;2023-03-25T05:30:43;12.90;98.40
40932;DHT22;36257;46.052;12.540;2023-03-25T05:33:12;12.90;98.50
40932;DHT22;36257;46.052;12.540;2023-03-25T05:35:40;12.90;98.70
40932;DHT22;36257;46.052;12.540;2023-03-25T05:38:08;12.80;98.70
40932;DHT22;36257;46.052;12.540;2023-03-25T05:40:34;12.90;99.30
40932;DHT22;36257;46.052;12.540;2023-03-25T05:43:04;12.90;98.80
40932;DHT22;36257;46.052;12.540;2023-03-25T05:45:31;12.90;98.50
40932;DHT22;36257;46.052;12.540;2023-03-25T05:47:57;12.90;98.20
40932;DHT22;36257;46.052;12.540;2023-03-25T05:50:24;12.90;98.10
40932;DHT22;36257;46.052;12.540;2023-03-25T05:52:52;12.90;98.00
40932;DHT22;36257;46.052;12.540;2023-03-25T05:55:21;12.90;98.00
40932;DHT22;36257;46.052;12.540;2023-03-25T05:57:47;12.90;98.10
40932;DHT22;36257;46.052;12.540;2023-03-25T06:00:14;12.80;98.20
40932;DHT22;36257;46.052;12.540;2023-03-25T06:02:40;12.90;97.90
40932;DHT22;36257;46.052;12.540;2023-03-25T06:05:09;12.90;97.80
40932;DHT22;36257;46.052;12.540;2023-03-25T06:07:41;12.90;97.80
40932;DHT22;36257;46.052;12.540;2023-03-25T06:10:09;13.00;97.40
40932;DHT22;36257;46.052;12.540;2023-03-25T06:12:35;13.10;97.30
40932;DHT22;36257;46.052;12.540;2023-03-25T06:15:07;13.10;97.20
40932;DHT22;36257;46.052;12.540;2023-03-25T06:17:34;13.10;97.10
40932;DHT22;36257;46.052;12.540;2023-03-25T06:20:04;13.10;97.20
40932;DHT22;36257;46.052;12.540;2023-03-25T06:22:44;13.10;97.30
40932;DHT22;36257;46.052;12.540;2023-03-25T06:25:14;13.20;97.00
40932;DHT22;36257;46.052;12.540;2023-03-25T06:27:46;13.30;96.30
40932;DHT22;36257;46.052;12.540;2023-03-25T06:30:14;13.40;95.80
40932;DHT22;36257;46.052;12.540;2023-03-25T06:32:40;13.60;95.00
40932;DHT22;36257;46.052;12.540;2023-03-25T06:35:07;13.60;95.30
40932;DHT22;36257;46.052;12.540;2023-03-25T06:37:35;13.70;95.10
40932;DHT22;36257;46.052;12.540;2023-03-25T06:40:02;13.70;94.70
40932;DHT22;36257;46.052;12.540;2023-03-25T06:42:29;13.80;94.40
40932;DHT22;36257;46.052;12.540;2023-03-25T06:44:55;13.80;94.70
40932;DHT22;36257;46.052;12.540;2023-03-25T06:47:21;13.80;94.70
40932;DHT22;36257;46.052;12.540;2023-03-25T06:49:47;13.80;94.70
40932;DHT22;36257;46.052;12.540;2023-03-25T06:52:13;13.80;93.90
40932;DHT22;36257;46.052;12.540;2023-03-25T06:54:39;13.80;94.90
40932;DHT22;36257;46.052;12.540;2023-03-25T06:57:05;13.70;95.50
40932;DHT22;36257;46.052;12.540;2023-03-25T06:59:30;13.80;95.40
40932;DHT22;36257;46.052;12.540;2023-03-25T07:01:57;13.80;94.70
40932;DHT22;36257;46.052;12.540;2023-03-25T07:04:22;13.80;94.40
40932;DHT22;36257;46.052;12.540;2023-03-25T07:06:48;13.80;94.90
40932;DHT22;36257;46.052;12.540;2023-03-25T07:09:14;13.80;95.60
40932;DHT22;36257;46.052;12.540;2023-03-25T07:11:40;13.80;95.10
40932;DHT22;36257;46.052;12.540;2023-03-25T07:14:06;13.80;95.50
40932;DHT22;36257;46.052;12.540;2023-03-25T07:16:32;13.80;95.20
40932;DHT22;36257;46.052;12.540;2023-03-25T07:18:58;13.90;95.90
40932;DHT22;36257;46.052;12.540;2023-03-25T07:21:24;13.90;95.70
40932;DHT22;36257;46.052;12.540;2023-03-25T07:23:51;14.00;94.40
40932;DHT22;36257;46.052;12.540;2023-03-25T07:26:17;14.00;95.00
40932;DHT22;36257;46.052;12.540;2023-03-25T07:28:43;14.00;95.00
40932;DHT22;36257;46.052;12.540;2023-03-25T07:31:10;14.10;95.30
40932;DHT22;36257;46.052;12.540;2023-03-25T07:33:36;14.10;95.00
40932;DHT22;36257;46.052;12.540;2023-03-25T07:36:03;14.10;95.30
40932;DHT22;36257;46.052;12.540;2023-03-25T07:38:29;14.10;95.10
40932;DHT22;36257;46.052;12.540;2023-03-25T07:40:55;14.00;95.50
40932;DHT22;36257;46.052;12.540;2023-03-25T07:43:21;14.00;95.40
40932;DHT22;36257;46.052;12.540;2023-03-25T07:45:46;13.90;95.80
40932;DHT22;36257;46.052;12.540;2023-03-25T07:48:12;13.90;96.00
40932;DHT22;36257;46.052;12.540;2023-03-25T07:50:41;13.90;96.40
40932;DHT22;36257;46.052;12.540;2023-03-25T07:53:07;14.00;96.00
40932;DHT22;36257;46.052;12.540;2023-03-25T07:55:33;14.10;95.00
40932;DHT22;36257;46.052;12.540;2023-03-25T07:57:58;14.10;96.10
40932;DHT22;36257;46.052;12.540;2023-03-25T08:00:26;14.00;96.70
40932;DHT22;36257;46.052;12.540;2023-03-25T08:02:52;14.00;96.80
40932;DHT22;36257;46.052;12.540;2023-03-25T08:05:18;14.10;96.20
40932;DHT22;36257;46.052;12.540;2023-03-25T08:07:46;14.10;96.20
40932;DHT22;36257;46.052;12.540;2023-03-25T08:10:12;14.20;96.00
40932;DHT22;36257;46.052;12.540;2023-03-25T08:12:39;14.30;96.50
40932;DHT22;36257;46.052;12.540;2023-03-25T08:15:06;14.40;95.60
40932;DHT22;36257;46.052;12.540;2023-03-25T08:17:32;14.50;96.50
40932;DHT22;36257;46.052;12.540;2023-03-25T08:19:58;14.50;96.20
40932;DHT22;36257;46.052;12.540;2023-03-25T08:22:28;14.80;95.60
40932;DHT22;36257;46.052;12.540;2023-03-25T08:24:53;15.20;95.00
40932;DHT22;36257;46.052;12.540;2023-03-25T08:27:19;15.60;95.30
40932;DHT22;36257;46.052;12.540;2023-03-25T08:29:45;16.10;91.50
40932;DHT22;36257;46.052;12.540;2023-03-25T08:32:22;16.40;91.20
40932;DHT22;36257;46.052;12.540;2023-03-25T08:34:48;16.50;91.20
40932;DHT22;36257;46.052;12.540;2023-03-25T08:37:14;16.50;90.00
40932;DHT22;36257;46.052;12.540;2023-03-25T08:39:43;16.60;90.60
40932;DHT22;36257;46.052;12.540;2023-03-25T08:42:11;16.60;90.50
40932;DHT22;36257;46.052;12.540;2023-03-25T08:44:37;16.50;89.70
40932;DHT22;36257;46.052;12.540;2023-03-25T08:47:03;16.40;91.20
40932;DHT22;36257;46.052;12.540;2023-03-25T08:49:29;16.60;91.30
40932;DHT22;36257;46.052;12.540;2023-03-25T08:51:55;16.70;90.10
40932;DHT22;36257;46.052;12.540;2023-03-25T08:54:23;16.80;89.80
40932;DHT22;36257;46.052;12.540;2023-03-25T08:56:50;17.20;88.70
40932;DHT22;36257;46.052;12.540;2023-03-25T08:59:16;17.60;87.50
40932;DHT22;36257;46.052;12.540;2023-03-25T09:01:42;17.80;86.70
40932;DHT22;36257;46.052;12.540;2023-03-25T09:04:09;17.90;87.00
40932;DHT22;36257;46.052;12.540;2023-03-25T09:06:35;18.10;86.20
40932;DHT22;36257;46.052;12.540;2023-03-25T09:09:02;18.30;85.20
40932;DHT22;36257;46.052;12.540;2023-03-25T09:11:32;18.60;84.60
40932;DHT22;36257;46.052;12.540;2023-03-25T09:13:59;18.70;83.10
40932;DHT22;36257;46.052;12.540;2023-03-25T09:16:28;18.60;83.50
40932;DHT22;36257;46.052;12.540;2023-03-25T09:18:54;18.60;84.30
40932;DHT22;36257;46.052;12.540;2023-03-25T09:21:20;19.00;83.60
40932;DHT22;36257;46.052;12.540;2023-03-25T09:23:46;19.30;82.40
40932;DHT22;36257;46.052;12.540;2023-03-25T09:26:12;19.40;81.90
40932;DHT22;36257;46.052;12.540;2023-03-25T09:28:37;19.60;82.60
40932;DHT22;36257;46.052;12.540;2023-03-25T09:31:03;20.00;81.00
40932;DHT22;36257;46.052;12.540;2023-03-25T09:33:29;19.80;80.90
40932;DHT22;36257;46.052;12.540;2023-03-25T09:35:54;19.80;79.40
40932;DHT22;36257;46.052;12.540;2023-03-25T09:38:20;20.00;82.30
40932;DHT22;36257;46.052;12.540;2023-03-25T09:40:46;20.00;80.00
40932;DHT22;36257;46.052;12.540;2023-03-25T09:43:44;19.80;80.70
40932;DHT22;36257;46.052;12.540;2023-03-25T09:46:17;19.30;81.30
40932;DHT22;36257;46.052;12.540;2023-03-25T09:48:45;19.00;83.20
40932;DHT22;36257;46.052;12.540;2023-03-25T09:51:24;18.70;84.00
40932;DHT22;36257;46.052;12.540;2023-03-25T09:56:47;19.30;84.40
40932;DHT22;36257;46.052;12.540;2023-03-25T09:59:17;19.70;83.20
40932;DHT22;36257;46.052;12.540;2023-03-25T10:08:00;18.80;83.60
40932;DHT22;36257;46.052;12.540;2023-03-25T10:16:05;18.60;85.10
40932;DHT22;36257;46.052;12.540;2023-03-25T10:18:47;18.70;84.90
40932;DHT22;36257;46.052;12.540;2023-03-25T10:21:39;19.10;84.70
40932;DHT22;36257;46.052;12.540;2023-03-25T10:26:54;19.60;82.90
40932;DHT22;36257;46.052;12.540;2023-03-25T10:29:26;19.40;81.30
40932;DHT22;36257;46.052;12.540;2023-03-25T10:31:58;19.10;81.90
40932;DHT22;36257;46.052;12.540;2023-03-25T10:34:50;18.70;81.60
40932;DHT22;36257;46.052;12.540;2023-03-25T10:37:29;18.70;83.70
40932;DHT22;36257;46.052;12.540;2023-03-25T10:40:02;18.80;83.30
40932;DHT22;36257;46.052;12.540;2023-03-25T10:42:39;18.90;82.60
40932;DHT22;36257;46.052;12.540;2023-03-25T10:45:14;18.60;83.30
40932;DHT22;36257;46.052;12.540;2023-03-25T10:47:42;18.30;84.10
40932;DHT22;36257;46.052;12.540;2023-03-25T10:50:14;18.00;85.20
40932;DHT22;36257;46.052;12.540;2023-03-25T10:52:41;17.80;85.90
40932;DHT22;36257;46.052;12.540;2023-03-25T10:55:25;17.60;86.20
40932;DHT22;36257;46.052;12.540;2023-03-25T10:57:52;17.40;86.60
40932;DHT22;36257;46.052;12.540;2023-03-25T11:00:18;17.30;87.10
40932;DHT22;36257;46.052;12.540;2023-03-25T11:02:46;17.10;87.50
40932;DHT22;36257;46.052;12.540;2023-03-25T11:05:15;16.90;87.40
40932;DHT22;36257;46.052;12.540;2023-03-25T11:07:49;16.70;87.30
40932;DHT22;36257;46.052;12.540;2023-03-25T11:10:24;16.60;87.40
40932;DHT22;36257;46.052;12.540;2023-03-25T11:12:52;16.60;87.10
40932;DHT22;36257;46.052;12.540;2023-03-25T11:15:30;16.50;87.30
40932;DHT22;36257;46.052;12.540;2023-03-25T11:18:14;16.40;87.90
40932;DHT22;36257;46.052;12.540;2023-03-25T11:20:47;16.40;88.20
40932;DHT22;36257;46.052;12.540;2023-03-25T11:23:25;16.20;87.70
40932;DHT22;36257;46.052;12.540;2023-03-25T11:25:53;16.10;87.50
40932;DHT22;36257;46.052;12.540;2023-03-25T11:28:38;15.90;87.10
40932;DHT22;36257;46.052;12.540;2023-03-25T11:31:26;15.70;87.80
40932;DHT22;36257;46.052;12.540;2023-03-25T11:36:29;15.60;88.50
40932;DHT22;36257;46.052;12.540;2023-03-25T11:39:01;15.60;87.20
40932;DHT22;36257;46.052;12.540;2023-03-25T11:41:35;15.60;87.90
40932;DHT22;36257;46.052;12.540;2023-03-25T11:44:02;15.60;88.00
40932;DHT22;36257;46.052;12.540;2023-03-25T11:46:30;15.60;87.90
40932;DHT22;36257;46.052;12.540;2023-03-25T11:49:09;15.60;87.60
40932;DHT22;36257;46.052;12.540;2023-03-25T11:51:36;15.70;87.60
40932;DHT22;36257;46.052;12.540;2023-03-25T11:54:06;15.80;87.70
40932;DHT22;36257;46.052;12.540;2023-03-25T11:56:40;15.90;87.60
40932;DHT22;36257;46.052;12.540;2023-03-25T11:59:34;16.00;85.70
40932;DHT22;36257;46.052;12.540;2023-03-25T12:02:29;16.10;85.40
40932;DHT22;36257;46.052;12.540;2023-03-25T12:05:02;16.30;84.70
40932;DHT22;36257;46.052;12.540;2023-03-25T12:07:28;16.40;84.30
40932;DHT22;36257;46.052;12.540;2023-03-25T12:10:03;16.60;83.40
40932;DHT22;36257;46.052;12.540;2023-03-25T12:15:39;16.90;82.50
40932;DHT22;36257;46.052;12.540;2023-03-25T12:24:06;17.70;80.90
40932;DHT22;36257;46.052;12.540;2023-03-25T12:26:49;18.00;79.90
40932;DHT22;36257;46.052;12.540;2023-03-25T12:32:21;19.00;76.90
40932;DHT22;36257;46.052;12.540;2023-03-25T12:35:25;19.00;75.50
40932;DHT22;36257;46.052;12.540;2023-03-25T12:43:16;18.70;75.80
40932;DHT22;36257;46.052;12.540;2023-03-25T12:46:01;18.50;76.90
40932;DHT22;36257;46.052;12.540;2023-03-25T12:48:53;18.40;77.90
40932;DHT22;36257;46.052;12.540;2023-03-25T12:51:48;18.50;77.40
40932;DHT22;36257;46.052;12.540;2023-03-25T13:05:17;18.60;76.80
40932;DHT22;36257;46.052;12.540;2023-03-25T13:07:46;18.10;77.70
40932;DHT22;36257;46.052;12.540;2023-03-25T13:10:17;17.80;78.60
40932;DHT22;36257;46.052;12.540;2023-03-25T13:12:52;17.60;79.80
40932;DHT22;36257;46.052;12.540;2023-03-25T13:18:16;17.20;82.00
40932;DHT22;36257;46.052;12.540;2023-03-25T13:20:47;17.00;82.60
40932;DHT22;36257;46.052;12.540;2023-03-25T13:23:18;16.80;83.00
40932;DHT22;36257;46.052;12.540;2023-03-25T13:25:59;16.80;83.70
40932;DHT22;36257;46.052;12.540;2023-03-25T13:28:36;16.70;83.60
40932;DHT22;36257;46.052;12.540;2023-03-25T13:31:07;16.60;83.70
40932;DHT22;36257;46.052;12.540;2023-03-25T13:33:37;16.60;84.00
40932;DHT22;36257;46.052;12.540;2023-03-25T13:38:55;16.50;85.60
40932;DHT22;36257;46.052;12.540;2023-03-25T13:41:36;16.50;88.20
40932;DHT22;36257;46.052;12.540;2023-03-25T13:46:47;16.40;89.20
40932;DHT22;36257;46.052;12.540;2023-03-25T13:49:29;16.30;90.40
40932;DHT22;36257;46.052;12.540;2023-03-25T13:51:57;16.20;91.60
40932;DHT22;36257;46.052;12.540;2023-03-25T13:54:32;16.10;93.00
40932;DHT22;36257;46.052;12.540;2023-03-25T14:08:39;16.60;93.40
40932;DHT22;36257;46.052;12.540;2023-03-25T14:11:20;16.80;93.40
40932;DHT22;36257;46.052;12.540;2023-03-25T14:14:13;16.70;91.40
40932;DHT22;36257;46.052;12.540;2023-03-25T14:16:49;16.60;91.60
40932;DHT22;36257;46.052;12.540;2023-03-25T14:19:21;16.40;91.30
40932;DHT22;36257;46.052;12.540;2023-03-25T14:21:50;16.10;91.40
40932;DHT22;36257;46.052;12.540;2023-03-25T14:26:53;15.90;90.60
40932;DHT22;36257;46.052;12.540;2023-03-25T14:34:34;15.60;90.20
40932;DHT22;36257;46.052;12.540;2023-03-25T14:44:32;15.30;90.40
40932;DHT22;36257;46.052;12.540;2023-03-25T14:52:44;15.10;90.10
40932;DHT22;36257;46.052;12.540;2023-03-25T14:55:25;15.10;89.10
40932;DHT22;36257;46.052;12.540;2023-03-25T14:57:58;15.00;89.90
40932;DHT22;36257;46.052;12.540;2023-03-25T15:00:29;15.00;89.30
40932;DHT22;36257;46.052;12.540;2023-03-25T15:05:36;14.80;90.80
40932;DHT22;36257;46.052;12.540;2023-03-25T15:10:44;14.70;90.40
40932;DHT22;36257;46.052;12.540;2023-03-25T15:13:26;14.80;90.40
40932;DHT22;36257;46.052;12.540;2023-03-25T15:15:58;14.80;91.10
40932;DHT22;36257;46.052;12.540;2023-03-25T15:21:09;14.70;90.90
40932;DHT22;36257;46.052;12.540;2023-03-25T15:24:05;14.60;90.80
40932;DHT22;36257;46.052;12.540;2023-03-25T15:26:36;14.60;90.40
40932;DHT22;36257;46.052;12.540;2023-03-25T15:44:30;14.40;93.00
40932;DHT22;36257;46.052;12.540;2023-03-25T15:47:35;14.50;92.70
40932;DHT22;36257;46.052;12.540;2023-03-25T15:53:22;14.60;92.40
40932;DHT22;36257;46.052;12.540;2023-03-25T15:55:59;14.50;92.70
40932;DHT22;36257;46.052;12.540;2023-03-25T15:58:34;14.40;92.80
40932;DHT22;36257;46.052;12.540;2023-03-25T16:01:19;14.20;93.20
40932;DHT22;36257;46.052;12.540;2023-03-25T16:03:54;14.10;93.20
40932;DHT22;36257;46.052;12.540;2023-03-25T16:06:22;14.00;93.60
40932;DHT22;36257;46.052;12.540;2023-03-25T16:08:48;14.00;93.90
40932;DHT22;36257;46.052;12.540;2023-03-25T16:14:09;13.90;94.00
40932;DHT22;36257;46.052;12.540;2023-03-25T16:16:36;13.90;94.40
40932;DHT22;36257;46.052;12.540;2023-03-25T16:19:04;13.80;94.40
40932;DHT22;36257;46.052;12.540;2023-03-25T16:21:33;13.80;94.70
40932;DHT22;36257;46.052;12.540;2023-03-25T16:24:03;13.80;94.90
40932;DHT22;36257;46.052;12.540;2023-03-25T16:26:35;13.80;94.70
40932;DHT22;36257;46.052;12.540;2023-03-25T16:29:29;13.80;95.40
40932;DHT22;36257;46.052;12.540;2023-03-25T16:31:55;13.80;94.90
40932;DHT22;36257;46.052;12.540;2023-03-25T16:34:21;13.80;94.90
40932;DHT22;36257;46.052;12.540;2023-03-25T16:36:49;13.90;95.00
40932;DHT22;36257;46.052;12.540;2023-03-25T16:39:15;13.90;94.70
40932;DHT22;36257;46.052;12.540;2023-03-25T16:41:46;13.90;94.40
40932;DHT22;36257;46.052;12.540;2023-03-25T16:44:14;13.90;94.50
40932;DHT22;36257;46.052;12.540;2023-03-25T16:46:42;13.80;94.70
40932;DHT22;36257;46.052;12.540;2023-03-25T16:49:18;13.80;94.90
40932;DHT22;36257;46.052;12.540;2023-03-25T16:51:45;13.70;94.40
40932;DHT22;36257;46.052;12.540;2023-03-25T16:57:25;13.70;94.50
40932;DHT22;36257;46.052;12.540;2023-03-25T16:59:53;13.60;94.40
40932;DHT22;36257;46.052;12.540;2023-03-25T17:02:24;13.60;94.60
40932;DHT22;36257;46.052;12.540;2023-03-25T17:04:50;13.60;94.60
40932;DHT22;36257;46.052;12.540;2023-03-25T17:07:23;13.60;94.70
40932;DHT22;36257;46.052;12.540;2023-03-25T17:09:53;13.60;94.70
40932;DHT22;36257;46.052;12.540;2023-03-25T17:12:21;13.50;94.90
40932;DHT22;36257;46.052;12.540;2023-03-25T17:14:48;13.60;94.70
40932;DHT22;36257;46.052;12.540;2023-03-25T17:20:05;13.40;94.90
40932;DHT22;36257;46.052;12.540;2023-03-25T17:22:35;13.40;94.90
40932;DHT22;36257;46.052;12.540;2023-03-25T17:25:24;13.20;95.50
40932;DHT22;36257;46.052;12.540;2023-03-25T17:27:54;13.10;96.00
40932;DHT22;36257;46.052;12.540;2023-03-25T17:30:34;13.10;96.20
40932;DHT22;36257;46.052;12.540;2023-03-25T17:33:19;13.10;96.10
40932;DHT22;36257;46.052;12.540;2023-03-25T17:35:55;13.00;96.50
40932;DHT22;36257;46.052;12.540;2023-03-25T17:38:26;13.00;96.70
40932;DHT22;36257;46.052;12.540;2023-03-25T17:41:04;12.90;96.50
40932;DHT22;36257;46.052;12.540;2023-03-25T17:43:31;12.90;96.60
40932;DHT22;36257;46.052;12.540;2023-03-25T17:45:58;12.80;96.80
40932;DHT22;36257;46.052;12.540;2023-03-25T17:48:25;12.80;96.80
40932;DHT22;36257;46.052;12.540;2023-03-25T17:50:52;12.70;97.00
40932;DHT22;36257;46.052;12.540;2023-03-25T17:53:19;12.60;96.90
40932;DHT22;36257;46.052;12.540;2023-03-25T17:55:46;12.50;97.10
40932;DHT22;36257;46.052;12.540;2023-03-25T17:58:13;12.60;97.40
40932;DHT22;36257;46.052;12.540;2023-03-25T18:00:39;12.60;96.80
40932;DHT22;36257;46.052;12.540;2023-03-25T18:03:13;12.50;96.80
40932;DHT22;36257;46.052;12.540;2023-03-25T18:05:39;12.40;96.40
40932;DHT22;36257;46.052;12.540;2023-03-25T18:08:05;12.40;96.10
40932;DHT22;36257;46.052;12.540;2023-03-25T18:10:31;12.30;96.30
40932;DHT22;36257;46.052;12.540;2023-03-25T18:12:58;12.30;96.10
40932;DHT22;36257;46.052;12.540;2023-03-25T18:15:23;12.40;95.60
40932;DHT22;36257;46.052;12.540;2023-03-25T18:17:49;12.40;95.40